createdAt,value
2019-02-17T00:00:13.446Z,1.93
2019-02-17T00:02:43.033Z,1.93
2019-02-17T00:05:11.660Z,1.95
2019-02-17T00:07:40.679Z,1.98
2019-02-17T00:10:09.395Z,2.00
2019-02-17T00:12:38.053Z,2.04
2019-02-17T00:15:08.752Z,2.10
2019-02-17T00:17:37.618Z,2.13
2019-02-17T00:20:08.131Z,2.22
2019-02-17T00:22:36.786Z,2.35
2019-02-17T00:25:06.867Z,2.52
2019-02-17T00:27:35.488Z,2.64
2019-02-17T00:30:06.189Z,2.70
2019-02-17T00:32:34.872Z,2.74
2019-02-17T00:35:03.494Z,2.73
2019-02-17T00:37:32.179Z,2.71
2019-02-17T00:40:00.793Z,2.71
2019-02-17T00:42:29.409Z,2.71
2019-02-17T00:44:57.992Z,2.68
2019-02-17T00:47:26.575Z,2.62
2019-02-17T00:49:55.153Z,2.52
2019-02-17T00:52:24.024Z,2.52
2019-02-17T00:54:52.658Z,2.46
2019-02-17T00:57:21.284Z,2.38
2019-02-17T00:59:50.110Z,2.33
2019-02-17T01:02:18.896Z,2.32
2019-02-17T01:04:47.469Z,2.29
2019-02-17T01:07:16.256Z,2.25
2019-02-17T01:09:44.919Z,2.34
2019-02-17T01:12:13.529Z,2.41
2019-02-17T01:14:42.934Z,2.48
2019-02-17T01:17:11.743Z,2.56
2019-02-17T01:19:40.382Z,2.59
2019-02-17T01:22:09.035Z,2.59
2019-02-17T01:24:37.823Z,2.58
2019-02-17T01:27:06.434Z,2.57
2019-02-17T01:29:35.271Z,2.58
2019-02-17T01:32:03.931Z,2.56
2019-02-17T01:34:32.522Z,2.55
2019-02-17T01:37:01.365Z,2.51
2019-02-17T01:39:29.972Z,2.51
2019-02-17T01:41:58.636Z,2.48
2019-02-17T01:44:27.168Z,2.45
2019-02-17T01:46:55.856Z,2.42
2019-02-17T01:49:24.681Z,2.38
2019-02-17T01:51:53.291Z,2.34
2019-02-17T01:54:21.928Z,2.28
2019-02-17T01:56:50.562Z,2.25
2019-02-17T01:59:19.217Z,2.22
2019-02-17T02:01:47.868Z,2.19
2019-02-17T02:04:16.691Z,2.16
2019-02-17T02:06:45.483Z,2.15
2019-02-17T02:09:14.169Z,2.15
2019-02-17T02:11:42.891Z,2.16
2019-02-17T02:14:11.497Z,2.20
2019-02-17T02:16:40.169Z,2.23
2019-02-17T02:19:08.777Z,2.25
2019-02-17T02:21:37.386Z,2.26
2019-02-17T02:24:05.956Z,2.26
2019-02-17T02:26:34.538Z,2.24
2019-02-17T02:29:03.193Z,2.25
2019-02-17T02:31:31.857Z,2.23
2019-02-17T02:34:00.680Z,2.23
2019-02-17T02:36:29.405Z,2.23
2019-02-17T02:38:58.326Z,2.22
2019-02-17T02:41:34.143Z,2.22
2019-02-17T02:43:57.322Z,2.21
2019-02-17T02:46:25.984Z,2.21
2019-02-17T02:48:54.595Z,2.19
2019-02-17T02:51:23.213Z,2.19
2019-02-17T02:53:52.424Z,2.20
2019-02-17T02:56:21.242Z,2.19
2019-02-17T02:58:49.772Z,2.16
2019-02-17T03:01:18.313Z,2.14
2019-02-17T03:03:47.042Z,2.12
2019-02-17T03:06:33.391Z,2.10
2019-02-17T03:09:02.241Z,2.09
2019-02-17T03:11:31.056Z,2.04
2019-02-17T03:13:59.687Z,2.01
2019-02-17T03:16:28.322Z,1.97
2019-02-17T03:18:56.855Z,1.95
2019-02-17T03:21:25.544Z,1.92
2019-02-17T03:23:54.292Z,1.89
2019-02-17T03:26:22.938Z,1.87
2019-02-17T03:28:51.412Z,1.89
2019-02-17T03:31:20.150Z,1.94
2019-02-17T03:33:48.691Z,2.04
2019-02-17T03:36:17.346Z,2.11
2019-02-17T03:38:45.995Z,2.14
2019-02-17T03:41:14.695Z,2.16
2019-02-17T03:43:43.305Z,2.16
2019-02-17T03:46:11.951Z,2.16
2019-02-17T03:48:40.816Z,2.16
2019-02-17T03:51:09.504Z,2.16
2019-02-17T03:53:38.244Z,2.16
2019-02-17T03:56:06.902Z,2.20
2019-02-17T03:58:35.536Z,2.22
2019-02-17T04:01:04.139Z,2.25
2019-02-17T04:03:32.853Z,2.27
2019-02-17T04:06:01.469Z,2.29
2019-02-17T04:08:30.097Z,2.29
2019-02-17T04:10:58.781Z,2.28
2019-02-17T04:13:27.504Z,2.28
2019-02-17T04:15:56.117Z,2.29
2019-02-17T04:18:24.815Z,2.31
2019-02-17T04:20:53.451Z,2.34
2019-02-17T04:23:30.973Z,2.33
2019-02-17T04:25:54.060Z,2.36
2019-02-17T04:28:22.699Z,2.42
2019-02-17T04:30:51.313Z,2.44
2019-02-17T04:33:19.952Z,2.45
2019-02-17T04:35:48.572Z,2.51
2019-02-17T04:38:17.182Z,2.59
2019-02-17T04:40:46.110Z,2.68
2019-02-17T04:43:14.763Z,2.74
2019-02-17T04:45:43.480Z,2.77
2019-02-17T04:48:12.118Z,2.81
2019-02-17T04:50:40.778Z,2.83
2019-02-17T04:53:09.639Z,2.89
2019-02-17T04:55:38.222Z,2.97
2019-02-17T04:58:06.842Z,3.03
2019-02-17T05:00:40.379Z,3.09
2019-02-17T05:03:05.818Z,3.16
2019-02-17T05:05:34.463Z,3.20
2019-02-17T05:08:03.678Z,3.25
2019-02-17T05:10:32.336Z,3.27
2019-02-17T05:13:00.932Z,3.31
2019-02-17T05:15:29.630Z,3.37
2019-02-17T05:17:58.244Z,3.39
2019-02-17T05:20:27.052Z,3.40
2019-02-17T05:22:55.661Z,3.41
2019-02-17T05:25:24.270Z,3.41
2019-02-17T05:27:52.871Z,3.41
2019-02-17T05:30:21.503Z,3.39
2019-02-17T05:32:50.045Z,3.39
2019-02-17T05:35:18.783Z,3.41
2019-02-17T05:37:47.397Z,3.40
2019-02-17T05:40:16.145Z,3.41
2019-02-17T05:42:44.817Z,3.40
2019-02-17T05:45:13.431Z,3.39
2019-02-17T05:47:42.041Z,3.35
2019-02-17T05:50:10.847Z,3.34
2019-02-17T05:52:39.500Z,3.27
2019-02-17T05:55:08.318Z,3.19
2019-02-17T05:57:36.903Z,3.10
2019-02-17T06:00:08.386Z,3.01
2019-02-17T06:02:37.042Z,2.89
2019-02-17T06:05:06.986Z,2.79
2019-02-17T06:07:35.600Z,2.68
2019-02-17T06:10:06.106Z,2.58
2019-02-17T06:12:34.858Z,2.52
2019-02-17T06:15:03.541Z,2.52
2019-02-17T06:17:32.072Z,2.54
2019-02-17T06:20:00.984Z,2.52
2019-02-17T06:22:29.672Z,2.50
2019-02-17T06:24:58.317Z,2.46
2019-02-17T06:27:26.930Z,2.43
2019-02-17T06:29:55.588Z,2.39
2019-02-17T06:32:24.200Z,2.37
2019-02-17T06:34:52.795Z,2.34
2019-02-17T06:37:21.408Z,2.33
2019-02-17T06:39:50.123Z,2.34
2019-02-17T06:42:18.781Z,2.34
2019-02-17T06:44:47.390Z,2.36
2019-02-17T06:47:17.944Z,2.38
2019-02-17T06:49:46.580Z,2.42
2019-02-17T06:52:15.190Z,2.46
2019-02-17T06:54:45.788Z,2.50
2019-02-17T06:57:19.119Z,2.52
2019-02-17T06:59:47.696Z,2.52
2019-02-17T07:02:16.313Z,2.51
2019-02-17T07:05:04.657Z,2.53
2019-02-17T07:07:33.347Z,2.54
2019-02-17T07:10:02.244Z,2.56
2019-02-17T07:12:31.016Z,2.60
2019-02-17T07:14:59.722Z,2.66
2019-02-17T07:17:28.361Z,2.72
2019-02-17T07:19:57.099Z,2.78
2019-02-17T07:22:25.836Z,2.83
2019-02-17T07:24:54.677Z,2.89
2019-02-17T07:27:23.340Z,2.97
2019-02-17T07:29:51.963Z,3.06
2019-02-17T07:32:20.547Z,3.15
2019-02-17T07:34:49.230Z,3.26
2019-02-17T07:37:19.438Z,3.37
2019-02-17T07:39:48.079Z,3.48
2019-02-17T07:42:16.688Z,3.60
2019-02-17T07:44:45.320Z,3.76
2019-02-17T07:47:14.032Z,3.89
2019-02-17T07:49:42.680Z,4.04
2019-02-17T07:52:11.284Z,4.17
2019-02-17T07:54:40.016Z,4.34
2019-02-17T07:57:08.673Z,4.50
2019-02-17T07:59:37.288Z,4.72
2019-02-17T08:02:06.002Z,5.17
2019-02-17T08:04:34.540Z,5.76
2019-02-17T08:07:03.248Z,6.40
2019-02-17T08:09:31.895Z,7.01
2019-02-17T08:12:00.545Z,7.59
2019-02-17T08:14:29.163Z,7.97
2019-02-17T08:16:57.810Z,8.28
2019-02-17T08:19:26.565Z,8.63
2019-02-17T08:21:55.520Z,9.01
2019-02-17T08:24:24.176Z,9.42
2019-02-17T08:26:53.020Z,9.86
2019-02-17T08:29:22.126Z,10.33
2019-02-17T08:31:55.901Z,10.80
2019-02-17T08:34:21.069Z,11.16
2019-02-17T08:36:49.622Z,11.60
2019-02-17T08:39:18.300Z,12.08
2019-02-17T08:41:47.036Z,12.49
2019-02-17T08:44:15.676Z,12.78
2019-02-17T08:46:45.214Z,13.05
2019-02-17T08:49:14.230Z,13.35
2019-02-17T08:51:42.892Z,13.52
2019-02-17T08:54:11.824Z,13.82
2019-02-17T08:56:40.473Z,14.05
2019-02-17T08:59:09.243Z,14.33
2019-02-17T09:01:37.869Z,14.68
2019-02-17T09:04:06.664Z,15.11
2019-02-17T09:06:36.005Z,15.42
2019-02-17T09:09:05.705Z,15.87
2019-02-17T09:11:34.735Z,16.26
2019-02-17T09:14:03.545Z,16.58
2019-02-17T09:16:32.204Z,16.82
2019-02-17T09:19:00.820Z,16.95
2019-02-17T09:21:29.587Z,17.05
2019-02-17T09:23:58.599Z,17.12
2019-02-17T09:26:29.631Z,17.31
2019-02-17T09:28:57.859Z,17.39
2019-02-17T09:31:26.540Z,17.41
2019-02-17T09:33:55.580Z,17.51
2019-02-17T09:36:24.424Z,17.61
2019-02-17T09:38:53.152Z,17.64
2019-02-17T09:41:21.749Z,17.62
2019-02-17T09:43:50.593Z,17.68
2019-02-17T09:46:19.207Z,17.76
2019-02-17T09:48:47.840Z,17.88
2019-02-17T09:51:16.476Z,17.89
2019-02-17T09:53:45.125Z,18.02
2019-02-17T09:56:13.849Z,18.06
2019-02-17T09:58:42.487Z,18.12
2019-02-17T10:01:11.292Z,18.22
2019-02-17T10:03:40.176Z,18.26
2019-02-17T10:06:08.964Z,18.29
2019-02-17T10:08:37.677Z,18.23
2019-02-17T10:11:06.373Z,18.15
2019-02-17T10:13:34.991Z,18.05
2019-02-17T10:16:03.672Z,17.95
2019-02-17T10:18:32.320Z,18.06
2019-02-17T10:21:00.943Z,18.17
2019-02-17T10:23:29.591Z,18.14
2019-02-17T10:25:58.210Z,18.18
2019-02-17T10:28:26.866Z,18.05
2019-02-17T10:30:55.755Z,18.16
2019-02-17T10:33:24.616Z,18.33
2019-02-17T10:35:53.324Z,18.55
2019-02-17T10:38:22.421Z,18.58
2019-02-17T10:40:50.982Z,18.56
2019-02-17T10:43:19.618Z,18.73
2019-02-17T10:45:48.375Z,18.88
2019-02-17T10:48:17.127Z,19.16
2019-02-17T10:50:46.004Z,19.28
2019-02-17T10:53:14.649Z,19.57
2019-02-17T10:55:43.394Z,19.80
2019-02-17T10:58:12.367Z,19.80
2019-02-17T11:00:41.672Z,19.96
2019-02-17T11:03:10.403Z,20.10
2019-02-17T11:05:39.214Z,20.17
2019-02-17T11:08:08.119Z,20.17
2019-02-17T11:10:36.866Z,20.13
2019-02-17T11:13:05.523Z,19.75
2019-02-17T11:15:34.205Z,19.60
2019-02-17T11:18:02.891Z,19.68
2019-02-17T11:20:31.600Z,19.97
2019-02-17T11:23:00.511Z,20.23
2019-02-17T11:25:29.135Z,20.36
2019-02-17T11:27:57.777Z,20.34
2019-02-17T11:30:26.391Z,20.27
2019-02-17T11:32:58.064Z,20.35
2019-02-17T11:35:25.364Z,20.28
2019-02-17T11:37:54.182Z,20.29
2019-02-17T11:40:23.084Z,20.38
2019-02-17T11:42:51.701Z,20.46
2019-02-17T11:45:20.660Z,20.44
2019-02-17T11:47:49.380Z,20.38
2019-02-17T11:50:18.028Z,20.38
2019-02-17T11:52:46.642Z,20.42
2019-02-17T11:55:16.768Z,20.47
2019-02-17T11:57:45.377Z,20.50
2019-02-17T12:00:19.471Z,20.55
2019-02-17T12:02:48.192Z,20.53
2019-02-17T12:05:16.793Z,20.55
2019-02-17T12:07:45.924Z,20.45
2019-02-17T12:10:14.718Z,20.24
2019-02-17T12:12:43.384Z,20.15
2019-02-17T12:15:13.789Z,20.22
2019-02-17T12:17:42.410Z,20.23
2019-02-17T12:20:32.533Z,20.24
2019-02-17T12:23:03.002Z,20.28
2019-02-17T12:25:33.254Z,20.12
2019-02-17T12:28:03.572Z,20.00
2019-02-17T12:30:32.271Z,20.01
2019-02-17T12:33:00.960Z,20.05
2019-02-17T12:35:29.609Z,20.14
2019-02-17T12:37:58.177Z,20.08
2019-02-17T12:40:26.839Z,20.15
2019-02-17T12:42:55.538Z,20.12
2019-02-17T12:45:24.180Z,19.96
2019-02-17T12:47:58.191Z,19.87
2019-02-17T12:50:23.338Z,19.85
2019-02-17T12:52:52.330Z,19.81
2019-02-17T12:55:20.982Z,19.82
2019-02-17T12:57:49.608Z,19.85
2019-02-17T13:00:18.651Z,19.79
2019-02-17T13:02:47.532Z,19.65
2019-02-17T13:05:16.165Z,19.66
2019-02-17T13:07:45.112Z,19.65
2019-02-17T13:10:13.757Z,19.62
2019-02-17T13:12:42.459Z,19.48
2019-02-17T13:15:13.001Z,19.38
2019-02-17T13:17:41.747Z,19.34
2019-02-17T13:20:12.284Z,19.29
2019-02-17T13:22:40.978Z,19.28
2019-02-17T13:25:12.242Z,19.18
2019-02-17T13:27:40.935Z,19.13
2019-02-17T13:30:15.497Z,19.03
2019-02-17T13:32:44.248Z,18.95
2019-02-17T13:35:13.067Z,18.88
2019-02-17T13:37:41.712Z,18.84
2019-02-17T13:40:12.659Z,18.78
2019-02-17T13:42:41.337Z,18.68
2019-02-17T13:45:12.728Z,18.49
2019-02-17T13:47:41.410Z,18.35
2019-02-17T13:50:12.313Z,18.10
2019-02-17T13:52:42.495Z,17.94
2019-02-17T13:55:11.633Z,17.80
2019-02-17T13:57:41.948Z,17.71
2019-02-17T14:00:16.280Z,17.62
2019-02-17T14:02:45.032Z,17.52
2019-02-17T14:05:13.954Z,17.40
2019-02-17T14:07:42.645Z,17.29
2019-02-17T14:10:12.794Z,17.22
2019-02-17T14:12:41.708Z,17.13
2019-02-17T14:15:16.261Z,17.08
2019-02-17T14:17:44.879Z,16.99
2019-02-17T14:20:13.607Z,16.93
2019-02-17T14:22:42.428Z,16.89
2019-02-17T14:25:11.632Z,16.84
2019-02-17T14:27:40.351Z,16.80
2019-02-17T14:30:17.268Z,16.78
2019-02-17T14:32:46.066Z,16.75
2019-02-17T14:35:14.845Z,16.70
2019-02-17T14:37:43.556Z,16.68
2019-02-17T14:40:13.413Z,16.64
2019-02-17T14:42:42.053Z,16.62
2019-02-17T14:45:14.811Z,16.58
2019-02-17T14:47:43.424Z,16.52
2019-02-17T14:50:12.382Z,16.48
2019-02-17T14:52:41.032Z,16.44
2019-02-17T14:55:13.179Z,16.40
2019-02-17T14:57:42.163Z,16.36
2019-02-17T15:00:15.835Z,16.30
2019-02-17T15:02:44.451Z,16.27
2019-02-17T15:05:12.730Z,16.22
2019-02-17T15:07:41.495Z,16.19
2019-02-17T15:10:16.716Z,16.17
2019-02-17T15:12:45.301Z,16.11
2019-02-17T15:15:16.101Z,16.08
2019-02-17T15:17:44.817Z,16.06
2019-02-17T15:20:21.664Z,16.03
2019-02-17T15:22:50.329Z,15.99
2019-02-17T15:25:19.058Z,15.96
2019-02-17T15:27:48.016Z,15.93
2019-02-17T15:30:18.090Z,15.91
2019-02-17T15:32:46.864Z,15.86
2019-02-17T15:35:15.648Z,15.81
2019-02-17T15:37:44.275Z,15.75
2019-02-17T15:40:14.355Z,15.73
2019-02-17T15:42:43.477Z,15.70
2019-02-17T15:45:13.675Z,15.66
2019-02-17T15:47:42.332Z,15.67
2019-02-17T15:50:12.857Z,15.68
2019-02-17T15:52:41.554Z,15.68
2019-02-17T15:55:14.769Z,15.63
2019-02-17T15:57:43.625Z,15.56
2019-02-17T16:00:14.369Z,15.48
2019-02-17T16:02:43.112Z,15.39
2019-02-17T16:05:12.064Z,15.29
2019-02-17T16:07:40.746Z,15.19
2019-02-17T16:10:11.262Z,15.06
2019-02-17T16:12:40.026Z,14.91
2019-02-17T16:15:11.591Z,14.83
2019-02-17T16:17:40.212Z,14.76
2019-02-17T16:20:11.729Z,14.65
2019-02-17T16:22:40.376Z,14.49
2019-02-17T16:25:10.184Z,14.32
2019-02-17T16:27:38.818Z,14.07
2019-02-17T16:30:19.512Z,13.78
2019-02-17T16:32:48.129Z,13.48
2019-02-17T16:35:17.215Z,13.16
2019-02-17T16:37:45.942Z,12.87
2019-02-17T16:40:15.920Z,12.63
2019-02-17T16:42:44.719Z,12.37
2019-02-17T16:45:14.282Z,12.13
2019-02-17T16:47:44.642Z,11.92
2019-02-17T16:50:25.405Z,11.71
2019-02-17T16:52:54.267Z,11.53
2019-02-17T16:55:22.882Z,11.41
2019-02-17T16:57:51.536Z,11.26
2019-02-17T17:00:25.090Z,11.09
2019-02-17T17:02:54.542Z,10.96
2019-02-17T17:05:24.058Z,10.84
2019-02-17T17:07:52.979Z,10.76
2019-02-17T17:10:22.021Z,10.74
2019-02-17T17:12:50.722Z,10.72
2019-02-17T17:15:19.477Z,10.64
2019-02-17T17:17:48.197Z,10.57
2019-02-17T17:20:21.832Z,10.46
2019-02-17T17:22:50.515Z,10.32
2019-02-17T17:25:19.666Z,10.17
2019-02-17T17:27:48.404Z,10.03
2019-02-17T17:30:20.549Z,9.89
2019-02-17T17:32:49.496Z,9.76
2019-02-17T17:35:18.350Z,9.66
2019-02-17T17:37:46.992Z,9.56
2019-02-17T17:40:17.807Z,9.52
2019-02-17T17:42:46.448Z,9.50
2019-02-17T17:45:22.240Z,9.48
2019-02-17T17:47:50.927Z,9.43
2019-02-17T17:50:19.542Z,9.43
2019-02-17T17:52:48.274Z,9.58
2019-02-17T17:55:16.935Z,9.70
2019-02-17T17:57:45.637Z,9.81
2019-02-17T18:00:23.907Z,9.89
2019-02-17T18:02:52.522Z,9.85
2019-02-17T18:05:21.313Z,9.75
2019-02-17T18:07:50.132Z,9.69
2019-02-17T18:10:18.895Z,9.59
2019-02-17T18:12:47.653Z,9.43
2019-02-17T18:15:18.169Z,9.30
2019-02-17T18:17:54.015Z,9.23
2019-02-17T18:20:17.257Z,9.23
2019-02-17T18:22:45.867Z,9.31
2019-02-17T18:25:15.166Z,9.43
2019-02-17T18:27:43.881Z,9.59
2019-02-17T18:30:18.202Z,9.83
2019-02-17T18:32:47.129Z,10.01
2019-02-17T18:35:20.380Z,10.11
2019-02-17T18:37:46.442Z,10.11
2019-02-17T18:40:16.732Z,10.07
2019-02-17T18:42:45.377Z,10.00
2019-02-17T18:45:15.126Z,9.92
2019-02-17T18:47:43.852Z,9.83
2019-02-17T18:50:20.041Z,9.80
2019-02-17T18:52:49.822Z,9.78
2019-02-17T18:55:19.155Z,9.76
2019-02-17T18:57:50.839Z,9.77
2019-02-17T19:00:27.900Z,9.82
2019-02-17T19:02:56.507Z,9.86
2019-02-17T19:05:31.866Z,9.87
2019-02-17T19:07:55.515Z,9.91
2019-02-17T19:10:24.223Z,9.92
2019-02-17T19:12:52.827Z,9.87
2019-02-17T19:15:22.304Z,9.78
2019-02-17T19:17:50.949Z,9.66
2019-02-17T19:20:28.644Z,9.60
2019-02-17T19:22:57.488Z,9.54
2019-02-17T19:25:26.152Z,9.43
2019-02-17T19:27:54.833Z,9.31
2019-02-17T19:30:23.568Z,9.20
2019-02-17T19:32:53.883Z,9.14
2019-02-17T19:35:22.645Z,9.09
2019-02-17T19:37:51.662Z,9.05
2019-02-17T19:40:20.423Z,9.14
2019-02-17T19:42:49.041Z,9.23
2019-02-17T19:45:20.656Z,9.28
2019-02-17T19:47:49.376Z,9.36
2019-02-17T19:50:18.144Z,9.35
2019-02-17T19:52:47.048Z,9.27
2019-02-17T19:55:16.005Z,9.19
2019-02-17T19:57:44.677Z,9.14
2019-02-17T20:00:15.815Z,9.07
2019-02-17T20:02:52.067Z,8.97
2019-02-17T20:05:22.301Z,8.94
2019-02-17T20:07:52.797Z,8.93
2019-02-17T20:10:21.444Z,8.87
2019-02-17T20:12:50.279Z,8.76
2019-02-17T20:15:19.723Z,8.66
2019-02-17T20:17:48.350Z,8.59
2019-02-17T20:20:16.977Z,8.53
2019-02-17T20:22:45.619Z,8.45
2019-02-17T20:25:14.238Z,8.34
2019-02-17T20:27:42.852Z,8.20
2019-02-17T20:30:13.650Z,8.08
2019-02-17T20:32:42.260Z,7.99
2019-02-17T20:35:10.898Z,7.89
2019-02-17T20:37:39.545Z,7.78
2019-02-17T20:40:13.003Z,7.65
2019-02-17T20:42:41.665Z,7.49
2019-02-17T20:45:11.883Z,7.45
2019-02-17T20:47:40.595Z,7.32
2019-02-17T20:50:14.104Z,7.20
2019-02-17T20:52:42.875Z,7.06
2019-02-17T20:55:12.517Z,6.93
2019-02-17T20:57:41.130Z,6.79
2019-02-17T21:00:11.840Z,6.65
2019-02-17T21:02:42.099Z,6.56
2019-02-17T21:05:11.391Z,6.43
2019-02-17T21:07:40.253Z,6.34
2019-02-17T21:10:13.277Z,6.28
2019-02-17T21:12:42.201Z,6.26
2019-02-17T21:15:12.287Z,6.23
2019-02-17T21:17:43.945Z,6.24
2019-02-17T21:20:13.249Z,6.31
2019-02-17T21:22:41.903Z,6.44
2019-02-17T21:25:11.915Z,6.64
2019-02-17T21:27:40.698Z,6.79
2019-02-17T21:30:20.417Z,7.07
2019-02-17T21:32:49.437Z,7.38
2019-02-17T21:35:18.191Z,7.63
2019-02-17T21:37:46.853Z,7.72
2019-02-17T21:40:15.528Z,7.75
2019-02-17T21:42:44.177Z,7.78
2019-02-17T21:45:14.745Z,7.79
2019-02-17T21:47:43.390Z,7.81
2019-02-17T21:50:13.000Z,7.84
2019-02-17T21:52:44.335Z,7.91
2019-02-17T21:55:14.408Z,7.98
2019-02-17T21:57:43.222Z,8.05
2019-02-17T22:00:16.418Z,8.11
2019-02-17T22:02:45.073Z,8.27
2019-02-17T22:05:13.763Z,8.40
2019-02-17T22:07:45.365Z,8.41
2019-02-17T22:10:16.654Z,8.41
2019-02-17T22:12:45.309Z,8.40
2019-02-17T22:15:24.063Z,8.43
2019-02-17T22:17:52.684Z,8.39
2019-02-17T22:20:21.330Z,8.29
2019-02-17T22:22:50.149Z,8.17
2019-02-17T22:25:19.040Z,8.05
2019-02-17T22:27:47.805Z,7.96
2019-02-17T22:30:16.610Z,7.94
2019-02-17T22:32:45.247Z,7.94
2019-02-17T22:35:13.951Z,7.97
2019-02-17T22:37:42.679Z,7.98
2019-02-17T22:40:13.737Z,7.89
2019-02-17T22:42:42.470Z,7.76
2019-02-17T22:45:12.439Z,7.60
2019-02-17T22:47:41.042Z,7.47
2019-02-17T22:50:14.569Z,7.35
2019-02-17T22:52:44.333Z,7.33
2019-02-17T22:55:13.848Z,7.42
2019-02-17T22:57:42.571Z,7.59
2019-02-17T23:00:45.830Z,7.78
2019-02-17T23:03:14.688Z,7.95
2019-02-17T23:05:43.443Z,8.09
2019-02-17T23:08:12.340Z,8.14
2019-02-17T23:10:41.110Z,8.15
2019-02-17T23:13:09.839Z,8.21
2019-02-17T23:15:38.455Z,8.26
2019-02-17T23:18:07.084Z,8.27
2019-02-17T23:20:35.712Z,8.25
2019-02-17T23:23:04.345Z,8.23
2019-02-17T23:25:32.951Z,8.11
2019-02-17T23:28:01.629Z,7.94
2019-02-17T23:30:30.234Z,7.69
2019-02-17T23:32:58.850Z,7.44
2019-02-17T23:35:27.501Z,7.14
2019-02-17T23:37:56.155Z,6.87
2019-02-17T23:40:24.828Z,6.62
2019-02-17T23:42:53.428Z,6.37
2019-02-17T23:45:22.078Z,6.16
2019-02-17T23:47:50.724Z,6.02
2019-02-17T23:50:19.341Z,5.86
2019-02-17T23:52:48.271Z,5.76
2019-02-17T23:55:16.993Z,5.87
2019-02-17T23:57:45.600Z,6.11
